sensor_id;sensor_type;location;lat;lon;timestamp;temperature;humidity
57857;DHT22;43683;48.650;9.290;2022-11-03T00:01:49;3.40;93.00
57857;DHT22;43683;48.650;9.290;2022-11-03T00:04:17;3.40;93.00
57857;DHT22;43683;48.650;9.290;2022-11-03T00:06:44;3.40;93.10
57857;DHT22;43683;48.650;9.290;2022-11-03T00:09:12;3.40;93.00
57857;DHT22;43683;48.650;9.290;2022-11-03T00:11:40;3.40;93.00
57857;DHT22;43683;48.650;9.290;2022-11-03T00:14:05;3.50;93.00
57857;DHT22;43683;48.650;9.290;2022-11-03T00:16:31;3.50;92.80
57857;DHT22;43683;48.650;9.290;2022-11-03T00:18:57;3.60;92.70
57857;DHT22;43683;48.650;9.290;2022-11-03T00:21:23;3.60;92.70
57857;DHT22;43683;48.650;9.290;2022-11-03T00:23:49;3.60;92.70
57857;DHT22;43683;48.650;9.290;2022-11-03T00:28:47;3.50;92.90
57857;DHT22;43683;48.650;9.290;2022-11-03T00:31:14;3.40;92.90
57857;DHT22;43683;48.650;9.290;2022-11-03T00:33:41;3.30;92.90
57857;DHT22;43683;48.650;9.290;2022-11-03T00:36:09;3.30;93.00
57857;DHT22;43683;48.650;9.290;2022-11-03T00:38:35;3.20;93.00
57857;DHT22;43683;48.650;9.290;2022-11-03T00:41:03;3.20;93.10
57857;DHT22;43683;48.650;9.290;2022-11-03T00:43:30;3.10;93.10
57857;DHT22;43683;48.650;9.290;2022-11-03T00:45:57;3.10;93.10
57857;DHT22;43683;48.650;9.290;2022-11-03T00:48:23;3.10;93.10
57857;DHT22;43683;48.650;9.290;2022-11-03T00:51:13;3.10;93.10
57857;DHT22;43683;48.650;9.290;2022-11-03T00:53:47;3.10;93.20
57857;DHT22;43683;48.650;9.290;2022-11-03T00:56:16;3.00;93.20
57857;DHT22;43683;48.650;9.290;2022-11-03T00:58:42;3.10;93.20
57857;DHT22;43683;48.650;9.290;2022-11-03T01:01:22;3.10;93.20
57857;DHT22;43683;48.650;9.290;2022-11-03T01:03:52;3.20;93.20
57857;DHT22;43683;48.650;9.290;2022-11-03T01:06:38;3.20;93.10
57857;DHT22;43683;48.650;9.290;2022-11-03T01:09:17;3.30;93.10
57857;DHT22;43683;48.650;9.290;2022-11-03T01:12:06;3.20;93.20
57857;DHT22;43683;48.650;9.290;2022-11-03T01:14:34;3.10;93.30
57857;DHT22;43683;48.650;9.290;2022-11-03T01:17:00;3.00;93.40
57857;DHT22;43683;48.650;9.290;2022-11-03T01:19:26;2.90;93.50
57857;DHT22;43683;48.650;9.290;2022-11-03T01:21:52;2.90;93.60
57857;DHT22;43683;48.650;9.290;2022-11-03T01:24:18;2.80;93.90
57857;DHT22;43683;48.650;9.290;2022-11-03T01:26:44;2.80;93.70
57857;DHT22;43683;48.650;9.290;2022-11-03T01:29:09;2.70;93.70
57857;DHT22;43683;48.650;9.290;2022-11-03T01:31:35;2.70;93.80
57857;DHT22;43683;48.650;9.290;2022-11-03T01:34:00;2.60;93.80
57857;DHT22;43683;48.650;9.290;2022-11-03T01:36:27;2.50;93.80
57857;DHT22;43683;48.650;9.290;2022-11-03T01:38:53;2.50;93.80
57857;DHT22;43683;48.650;9.290;2022-11-03T01:41:23;2.40;93.80
57857;DHT22;43683;48.650;9.290;2022-11-03T01:44:03;2.40;94.00
57857;DHT22;43683;48.650;9.290;2022-11-03T01:46:55;2.40;93.90
57857;DHT22;43683;48.650;9.290;2022-11-03T01:51:51;2.40;93.80
57857;DHT22;43683;48.650;9.290;2022-11-03T01:54:20;2.40;93.70
57857;DHT22;43683;48.650;9.290;2022-11-03T01:56:48;2.40;93.80
57857;DHT22;43683;48.650;9.290;2022-11-03T01:59:16;2.40;93.70
57857;DHT22;43683;48.650;9.290;2022-11-03T02:01:43;2.30;93.80
57857;DHT22;43683;48.650;9.290;2022-11-03T02:04:15;2.30;93.80
57857;DHT22;43683;48.650;9.290;2022-11-03T02:06:42;2.30;93.80
57857;DHT22;43683;48.650;9.290;2022-11-03T02:09:09;2.20;93.80
57857;DHT22;43683;48.650;9.290;2022-11-03T02:11:36;2.20;93.80
57857;DHT22;43683;48.650;9.290;2022-11-03T02:14:21;2.10;93.80
57857;DHT22;43683;48.650;9.290;2022-11-03T02:16:52;2.10;93.80
57857;DHT22;43683;48.650;9.290;2022-11-03T02:19:40;2.10;93.90
57857;DHT22;43683;48.650;9.290;2022-11-03T02:22:30;2.00;93.90
57857;DHT22;43683;48.650;9.290;2022-11-03T02:25:39;2.10;93.90
57857;DHT22;43683;48.650;9.290;2022-11-03T02:27:57;2.10;93.90
57857;DHT22;43683;48.650;9.290;2022-11-03T02:30:23;2.10;93.80
57857;DHT22;43683;48.650;9.290;2022-11-03T02:33:09;2.00;93.90
57857;DHT22;43683;48.650;9.290;2022-11-03T02:38:15;2.00;93.80
57857;DHT22;43683;48.650;9.290;2022-11-03T02:40:46;1.90;93.80
57857;DHT22;43683;48.650;9.290;2022-11-03T02:43:13;1.90;93.80
57857;DHT22;43683;48.650;9.290;2022-11-03T02:45:41;1.80;93.90
57857;DHT22;43683;48.650;9.290;2022-11-03T02:48:08;1.80;93.90
57857;DHT22;43683;48.650;9.290;2022-11-03T02:50:34;1.80;93.90
57857;DHT22;43683;48.650;9.290;2022-11-03T02:53:00;1.80;93.90
57857;DHT22;43683;48.650;9.290;2022-11-03T02:58:36;1.80;93.90
57857;DHT22;43683;48.650;9.290;2022-11-03T03:01:39;1.80;93.90
57857;DHT22;43683;48.650;9.290;2022-11-03T03:04:39;1.90;93.90
57857;DHT22;43683;48.650;9.290;2022-11-03T03:07:14;1.90;93.80
57857;DHT22;43683;48.650;9.290;2022-11-03T03:09:57;1.90;93.80
57857;DHT22;43683;48.650;9.290;2022-11-03T03:12:25;1.90;93.80
57857;DHT22;43683;48.650;9.290;2022-11-03T03:14:53;2.10;93.70
57857;DHT22;43683;48.650;9.290;2022-11-03T03:17:49;2.20;93.60
57857;DHT22;43683;48.650;9.290;2022-11-03T03:20:16;2.10;93.60
57857;DHT22;43683;48.650;9.290;2022-11-03T03:23:12;2.10;93.70
57857;DHT22;43683;48.650;9.290;2022-11-03T03:25:44;2.10;93.80
57857;DHT22;43683;48.650;9.290;2022-11-03T03:28:18;2.00;93.70
57857;DHT22;43683;48.650;9.290;2022-11-03T03:30:45;2.10;93.80
57857;DHT22;43683;48.650;9.290;2022-11-03T03:33:14;2.10;93.70
57857;DHT22;43683;48.650;9.290;2022-11-03T03:35:41;2.10;93.70
57857;DHT22;43683;48.650;9.290;2022-11-03T03:38:19;2.00;93.70
57857;DHT22;43683;48.650;9.290;2022-11-03T03:40:50;2.00;93.70
57857;DHT22;43683;48.650;9.290;2022-11-03T03:43:17;2.00;93.70
57857;DHT22;43683;48.650;9.290;2022-11-03T03:45:44;1.90;93.80
57857;DHT22;43683;48.650;9.290;2022-11-03T03:48:11;1.90;93.80
57857;DHT22;43683;48.650;9.290;2022-11-03T03:50:37;1.90;93.80
57857;DHT22;43683;48.650;9.290;2022-11-03T03:53:05;2.00;93.80
57857;DHT22;43683;48.650;9.290;2022-11-03T03:55:37;2.00;93.80
57857;DHT22;43683;48.650;9.290;2022-11-03T03:58:04;2.00;93.80
57857;DHT22;43683;48.650;9.290;2022-11-03T04:00:30;2.00;93.80
57857;DHT22;43683;48.650;9.290;2022-11-03T04:02:57;1.90;93.80
57857;DHT22;43683;48.650;9.290;2022-11-03T04:05:23;2.00;93.80
57857;DHT22;43683;48.650;9.290;2022-11-03T04:07:48;2.00;93.80
57857;DHT22;43683;48.650;9.290;2022-11-03T04:10:15;2.00;93.80
57857;DHT22;43683;48.650;9.290;2022-11-03T04:12:43;2.10;93.90
57857;DHT22;43683;48.650;9.290;2022-11-03T04:15:27;2.20;93.70
57857;DHT22;43683;48.650;9.290;2022-11-03T04:18:12;2.20;93.70
57857;DHT22;43683;48.650;9.290;2022-11-03T04:20:56;2.10;93.80
57857;DHT22;43683;48.650;9.290;2022-11-03T04:23:40;2.00;93.90
57857;DHT22;43683;48.650;9.290;2022-11-03T04:26:19;2.10;93.90
57857;DHT22;43683;48.650;9.290;2022-11-03T04:28:48;2.00;94.00
57857;DHT22;43683;48.650;9.290;2022-11-03T04:31:18;2.00;94.00
57857;DHT22;43683;48.650;9.290;2022-11-03T04:33:44;2.00;94.00
57857;DHT22;43683;48.650;9.290;2022-11-03T04:38:42;1.90;94.10
57857;DHT22;43683;48.650;9.290;2022-11-03T04:43:43;2.00;94.10
57857;DHT22;43683;48.650;9.290;2022-11-03T04:46:29;2.00;94.40
57857;DHT22;43683;48.650;9.290;2022-11-03T04:48:58;2.10;94.10
57857;DHT22;43683;48.650;9.290;2022-11-03T04:51:27;2.10;94.00
57857;DHT22;43683;48.650;9.290;2022-11-03T04:53:58;2.10;94.30
57857;DHT22;43683;48.650;9.290;2022-11-03T04:56:24;2.10;93.90
57857;DHT22;43683;48.650;9.290;2022-11-03T04:58:50;2.10;93.90
57857;DHT22;43683;48.650;9.290;2022-11-03T05:01:18;2.10;93.90
57857;DHT22;43683;48.650;9.290;2022-11-03T05:03:49;2.10;93.90
57857;DHT22;43683;48.650;9.290;2022-11-03T05:06:26;2.10;94.00
57857;DHT22;43683;48.650;9.290;2022-11-03T05:08:55;2.10;94.00
57857;DHT22;43683;48.650;9.290;2022-11-03T05:13:51;2.10;94.00
57857;DHT22;43683;48.650;9.290;2022-11-03T05:16:17;2.10;94.00
57857;DHT22;43683;48.650;9.290;2022-11-03T05:18:44;2.00;94.00
57857;DHT22;43683;48.650;9.290;2022-11-03T05:21:16;1.90;94.10
57857;DHT22;43683;48.650;9.290;2022-11-03T05:23:46;1.90;94.20
57857;DHT22;43683;48.650;9.290;2022-11-03T05:26:29;2.00;94.20
57857;DHT22;43683;48.650;9.290;2022-11-03T05:28:59;1.90;94.10
57857;DHT22;43683;48.650;9.290;2022-11-03T05:31:28;1.90;94.20
57857;DHT22;43683;48.650;9.290;2022-11-03T05:33:59;1.80;94.30
57857;DHT22;43683;48.650;9.290;2022-11-03T05:36:28;1.80;94.40
57857;DHT22;43683;48.650;9.290;2022-11-03T05:38:58;1.80;94.30
57857;DHT22;43683;48.650;9.290;2022-11-03T05:41:26;1.70;94.30
57857;DHT22;43683;48.650;9.290;2022-11-03T05:43:56;1.70;94.40
57857;DHT22;43683;48.650;9.290;2022-11-03T05:46:27;1.60;94.40
57857;DHT22;43683;48.650;9.290;2022-11-03T05:48:53;1.60;94.30
57857;DHT22;43683;48.650;9.290;2022-11-03T05:51:21;1.50;94.30
57857;DHT22;43683;48.650;9.290;2022-11-03T05:53:54;1.50;94.40
57857;DHT22;43683;48.650;9.290;2022-11-03T05:56:23;1.40;94.50
57857;DHT22;43683;48.650;9.290;2022-11-03T05:58:54;1.40;94.50
57857;DHT22;43683;48.650;9.290;2022-11-03T06:01:35;1.40;94.50
57857;DHT22;43683;48.650;9.290;2022-11-03T06:04:25;1.40;94.50
57857;DHT22;43683;48.650;9.290;2022-11-03T06:07:03;1.40;94.50
57857;DHT22;43683;48.650;9.290;2022-11-03T06:09:31;1.40;94.40
57857;DHT22;43683;48.650;9.290;2022-11-03T06:11:59;1.40;94.30
57857;DHT22;43683;48.650;9.290;2022-11-03T06:14:27;1.50;94.30
57857;DHT22;43683;48.650;9.290;2022-11-03T06:17:01;1.50;94.20
57857;DHT22;43683;48.650;9.290;2022-11-03T06:19:40;1.50;94.20
57857;DHT22;43683;48.650;9.290;2022-11-03T06:22:28;1.50;94.20
57857;DHT22;43683;48.650;9.290;2022-11-03T06:24:58;1.50;94.30
57857;DHT22;43683;48.650;9.290;2022-11-03T06:27:26;1.50;94.20
57857;DHT22;43683;48.650;9.290;2022-11-03T06:29:57;1.50;94.20
57857;DHT22;43683;48.650;9.290;2022-11-03T06:32:24;1.50;94.20
57857;DHT22;43683;48.650;9.290;2022-11-03T06:34:51;1.50;94.20
57857;DHT22;43683;48.650;9.290;2022-11-03T06:37:22;1.50;94.30
57857;DHT22;43683;48.650;9.290;2022-11-03T06:39:49;1.50;94.40
57857;DHT22;43683;48.650;9.290;2022-11-03T06:42:19;1.50;94.40
57857;DHT22;43683;48.650;9.290;2022-11-03T06:44:47;1.60;94.40
57857;DHT22;43683;48.650;9.290;2022-11-03T06:47:19;1.60;94.30
57857;DHT22;43683;48.650;9.290;2022-11-03T06:49:47;1.70;94.30
57857;DHT22;43683;48.650;9.290;2022-11-03T06:52:34;1.90;94.10
57857;DHT22;43683;48.650;9.290;2022-11-03T06:55:22;2.10;94.00
57857;DHT22;43683;48.650;9.290;2022-11-03T06:57:56;2.20;93.80
57857;DHT22;43683;48.650;9.290;2022-11-03T07:00:23;2.30;93.70
57857;DHT22;43683;48.650;9.290;2022-11-03T07:05:24;2.40;93.80
57857;DHT22;43683;48.650;9.290;2022-11-03T07:07:55;2.50;93.90
57857;DHT22;43683;48.650;9.290;2022-11-03T07:10:29;2.60;94.00
57857;DHT22;43683;48.650;9.290;2022-11-03T07:12:58;2.80;94.00
57857;DHT22;43683;48.650;9.290;2022-11-03T07:15:30;3.10;94.10
57857;DHT22;43683;48.650;9.290;2022-11-03T07:17:57;3.40;94.30
57857;DHT22;43683;48.650;9.290;2022-11-03T07:20:23;3.60;94.30
57857;DHT22;43683;48.650;9.290;2022-11-03T07:22:50;4.00;94.40
57857;DHT22;43683;48.650;9.290;2022-11-03T07:25:20;4.20;94.50
57857;DHT22;43683;48.650;9.290;2022-11-03T07:27:54;4.40;94.50
57857;DHT22;43683;48.650;9.290;2022-11-03T07:30:23;4.50;94.60
57857;DHT22;43683;48.650;9.290;2022-11-03T07:32:52;4.70;94.90
57857;DHT22;43683;48.650;9.290;2022-11-03T07:35:34;5.00;94.70
57857;DHT22;43683;48.650;9.290;2022-11-03T07:38:04;5.30;94.80
57857;DHT22;43683;48.650;9.290;2022-11-03T07:40:33;5.60;94.90
57857;DHT22;43683;48.650;9.290;2022-11-03T07:43:01;5.80;94.90
57857;DHT22;43683;48.650;9.290;2022-11-03T07:45:42;6.00;94.90
57857;DHT22;43683;48.650;9.290;2022-11-03T07:48:21;6.20;94.80
57857;DHT22;43683;48.650;9.290;2022-11-03T07:50:49;6.30;94.80
57857;DHT22;43683;48.650;9.290;2022-11-03T07:53:17;6.30;94.80
57857;DHT22;43683;48.650;9.290;2022-11-03T07:55:45;6.40;94.80
57857;DHT22;43683;48.650;9.290;2022-11-03T07:58:21;6.60;94.80
57857;DHT22;43683;48.650;9.290;2022-11-03T08:00:47;6.70;94.70
57857;DHT22;43683;48.650;9.290;2022-11-03T08:03:26;6.80;94.70
57857;DHT22;43683;48.650;9.290;2022-11-03T08:05:52;7.00;94.70
57857;DHT22;43683;48.650;9.290;2022-11-03T08:08:18;7.10;94.70
57857;DHT22;43683;48.650;9.290;2022-11-03T08:10:43;7.20;94.50
57857;DHT22;43683;48.650;9.290;2022-11-03T08:13:09;7.30;94.40
57857;DHT22;43683;48.650;9.290;2022-11-03T08:15:34;7.40;94.30
57857;DHT22;43683;48.650;9.290;2022-11-03T08:18:00;7.50;94.70
57857;DHT22;43683;48.650;9.290;2022-11-03T08:20:25;7.70;94.30
57857;DHT22;43683;48.650;9.290;2022-11-03T08:22:51;7.80;94.30
57857;DHT22;43683;48.650;9.290;2022-11-03T08:25:16;7.90;94.30
57857;DHT22;43683;48.650;9.290;2022-11-03T08:27:42;8.20;94.30
57857;DHT22;43683;48.650;9.290;2022-11-03T08:30:07;8.40;94.50
57857;DHT22;43683;48.650;9.290;2022-11-03T08:32:34;8.60;94.10
57857;DHT22;43683;48.650;9.290;2022-11-03T08:34:59;8.70;94.00
57857;DHT22;43683;48.650;9.290;2022-11-03T08:37:25;8.80;94.00
57857;DHT22;43683;48.650;9.290;2022-11-03T08:39:50;8.90;93.80
57857;DHT22;43683;48.650;9.290;2022-11-03T08:42:16;9.00;93.60
57857;DHT22;43683;48.650;9.290;2022-11-03T08:44:42;9.10;93.40
57857;DHT22;43683;48.650;9.290;2022-11-03T08:47:07;9.20;93.10
57857;DHT22;43683;48.650;9.290;2022-11-03T08:49:33;9.30;92.90
57857;DHT22;43683;48.650;9.290;2022-11-03T08:51:58;9.40;92.70
57857;DHT22;43683;48.650;9.290;2022-11-03T08:54:24;9.50;92.70
57857;DHT22;43683;48.650;9.290;2022-11-03T08:56:50;9.60;92.50
57857;DHT22;43683;48.650;9.290;2022-11-03T08:59:16;9.70;92.30
57857;DHT22;43683;48.650;9.290;2022-11-03T09:01:42;9.70;92.40
57857;DHT22;43683;48.650;9.290;2022-11-03T09:04:09;9.80;92.00
57857;DHT22;43683;48.650;9.290;2022-11-03T09:06:34;9.90;91.90
57857;DHT22;43683;48.650;9.290;2022-11-03T09:09:00;10.10;91.70
57857;DHT22;43683;48.650;9.290;2022-11-03T09:11:25;10.20;91.40
57857;DHT22;43683;48.650;9.290;2022-11-03T09:13:51;10.30;91.30
57857;DHT22;43683;48.650;9.290;2022-11-03T09:16:16;10.30;91.10
57857;DHT22;43683;48.650;9.290;2022-11-03T09:18:42;10.20;91.00
57857;DHT22;43683;48.650;9.290;2022-11-03T09:21:07;10.20;91.00
57857;DHT22;43683;48.650;9.290;2022-11-03T09:23:33;10.40;91.00
57857;DHT22;43683;48.650;9.290;2022-11-03T09:25:58;10.60;90.90
57857;DHT22;43683;48.650;9.290;2022-11-03T09:28:24;10.70;90.70
57857;DHT22;43683;48.650;9.290;2022-11-03T09:30:49;10.90;90.60
57857;DHT22;43683;48.650;9.290;2022-11-03T09:33:15;11.10;90.50
57857;DHT22;43683;48.650;9.290;2022-11-03T09:35:41;11.40;90.30
57857;DHT22;43683;48.650;9.290;2022-11-03T09:38:06;11.70;90.10
57857;DHT22;43683;48.650;9.290;2022-11-03T09:40:33;11.80;90.00
57857;DHT22;43683;48.650;9.290;2022-11-03T09:42:59;12.00;89.50
57857;DHT22;43683;48.650;9.290;2022-11-03T09:45:25;12.10;89.20
57857;DHT22;43683;48.650;9.290;2022-11-03T09:47:50;12.20;89.00
57857;DHT22;43683;48.650;9.290;2022-11-03T09:50:17;12.40;88.50
57857;DHT22;43683;48.650;9.290;2022-11-03T09:52:47;12.50;88.30
57857;DHT22;43683;48.650;9.290;2022-11-03T09:55:15;12.60;87.80
57857;DHT22;43683;48.650;9.290;2022-11-03T09:57:41;12.60;87.70
57857;DHT22;43683;48.650;9.290;2022-11-03T10:00:17;12.70;87.60
57857;DHT22;43683;48.650;9.290;2022-11-03T10:02:43;12.60;87.30
57857;DHT22;43683;48.650;9.290;2022-11-03T10:05:12;12.50;87.40
57857;DHT22;43683;48.650;9.290;2022-11-03T10:07:41;12.40;87.20
57857;DHT22;43683;48.650;9.290;2022-11-03T10:10:17;12.40;86.90
57857;DHT22;43683;48.650;9.290;2022-11-03T10:12:44;12.40;86.30
57857;DHT22;43683;48.650;9.290;2022-11-03T10:15:15;12.50;86.10
57857;DHT22;43683;48.650;9.290;2022-11-03T10:17:41;12.50;85.80
57857;DHT22;43683;48.650;9.290;2022-11-03T10:20:15;12.40;85.50
57857;DHT22;43683;48.650;9.290;2022-11-03T10:22:42;12.30;85.40
57857;DHT22;43683;48.650;9.290;2022-11-03T10:27:50;12.20;85.30
57857;DHT22;43683;48.650;9.290;2022-11-03T10:30:16;12.20;85.40
57857;DHT22;43683;48.650;9.290;2022-11-03T10:32:41;12.20;85.10
57857;DHT22;43683;48.650;9.290;2022-11-03T10:35:35;12.20;85.20
57857;DHT22;43683;48.650;9.290;2022-11-03T10:40:52;12.10;85.10
57857;DHT22;43683;48.650;9.290;2022-11-03T10:43:18;12.10;85.40
57857;DHT22;43683;48.650;9.290;2022-11-03T10:45:44;12.10;85.60
57857;DHT22;43683;48.650;9.290;2022-11-03T10:48:10;12.10;85.40
57857;DHT22;43683;48.650;9.290;2022-11-03T10:50:37;12.20;85.20
57857;DHT22;43683;48.650;9.290;2022-11-03T10:53:03;12.20;85.00
57857;DHT22;43683;48.650;9.290;2022-11-03T10:55:29;12.30;85.00
57857;DHT22;43683;48.650;9.290;2022-11-03T10:57:55;12.40;84.70
57857;DHT22;43683;48.650;9.290;2022-11-03T11:00:22;12.50;84.50
57857;DHT22;43683;48.650;9.290;2022-11-03T11:02:49;12.60;84.20
57857;DHT22;43683;48.650;9.290;2022-11-03T11:05:20;12.70;84.00
57857;DHT22;43683;48.650;9.290;2022-11-03T11:07:46;12.90;83.90
57857;DHT22;43683;48.650;9.290;2022-11-03T11:10:17;13.00;83.50
57857;DHT22;43683;48.650;9.290;2022-11-03T11:15:45;13.10;82.70
57857;DHT22;43683;48.650;9.290;2022-11-03T11:20:58;13.20;82.80
57857;DHT22;43683;48.650;9.290;2022-11-03T11:28:38;13.10;83.10
57857;DHT22;43683;48.650;9.290;2022-11-03T11:31:30;13.20;83.00
57857;DHT22;43683;48.650;9.290;2022-11-03T11:36:38;13.20;82.70
57857;DHT22;43683;48.650;9.290;2022-11-03T11:42:03;13.30;82.70
57857;DHT22;43683;48.650;9.290;2022-11-03T11:47:25;13.20;82.40
57857;DHT22;43683;48.650;9.290;2022-11-03T11:52:47;13.10;82.50
57857;DHT22;43683;48.650;9.290;2022-11-03T11:55:37;13.20;82.50
57857;DHT22;43683;48.650;9.290;2022-11-03T11:58:13;13.30;82.20
57857;DHT22;43683;48.650;9.290;2022-11-03T12:03:14;13.40;82.00
57857;DHT22;43683;48.650;9.290;2022-11-03T12:05:39;13.40;82.10
57857;DHT22;43683;48.650;9.290;2022-11-03T12:08:19;13.40;82.00
57857;DHT22;43683;48.650;9.290;2022-11-03T12:10:53;13.40;81.80
57857;DHT22;43683;48.650;9.290;2022-11-03T12:13:44;13.30;81.80
57857;DHT22;43683;48.650;9.290;2022-11-03T12:16:34;13.30;81.60
57857;DHT22;43683;48.650;9.290;2022-11-03T12:19:45;13.30;82.40
57857;DHT22;43683;48.650;9.290;2022-11-03T12:24:57;13.40;81.80
57857;DHT22;43683;48.650;9.290;2022-11-03T12:29:49;13.30;81.60
57857;DHT22;43683;48.650;9.290;2022-11-03T12:32:15;13.20;81.70
57857;DHT22;43683;48.650;9.290;2022-11-03T12:34:41;13.10;81.80
57857;DHT22;43683;48.650;9.290;2022-11-03T12:37:06;13.00;81.80
57857;DHT22;43683;48.650;9.290;2022-11-03T12:39:33;12.90;81.90
57857;DHT22;43683;48.650;9.290;2022-11-03T12:41:58;12.90;81.80
57857;DHT22;43683;48.650;9.290;2022-11-03T12:44:24;12.90;81.70
57857;DHT22;43683;48.650;9.290;2022-11-03T12:46:49;13.00;81.70
57857;DHT22;43683;48.650;9.290;2022-11-03T12:49:15;13.00;81.70
57857;DHT22;43683;48.650;9.290;2022-11-03T12:51:40;13.00;81.60
57857;DHT22;43683;48.650;9.290;2022-11-03T12:54:06;13.00;81.40
57857;DHT22;43683;48.650;9.290;2022-11-03T12:56:32;13.00;81.20
57857;DHT22;43683;48.650;9.290;2022-11-03T12:58:57;13.00;81.20
57857;DHT22;43683;48.650;9.290;2022-11-03T13:01:23;13.00;81.30
57857;DHT22;43683;48.650;9.290;2022-11-03T13:03:48;13.00;81.30
57857;DHT22;43683;48.650;9.290;2022-11-03T13:06:14;13.00;81.20
57857;DHT22;43683;48.650;9.290;2022-11-03T13:08:40;13.00;80.90
57857;DHT22;43683;48.650;9.290;2022-11-03T13:11:05;13.00;80.90
57857;DHT22;43683;48.650;9.290;2022-11-03T13:13:51;13.00;80.80
57857;DHT22;43683;48.650;9.290;2022-11-03T13:16:18;13.10;81.40
57857;DHT22;43683;48.650;9.290;2022-11-03T13:18:43;13.00;80.70
57857;DHT22;43683;48.650;9.290;2022-11-03T13:21:09;13.00;80.80
57857;DHT22;43683;48.650;9.290;2022-11-03T13:23:34;13.00;80.90
57857;DHT22;43683;48.650;9.290;2022-11-03T13:26:00;12.90;80.90
57857;DHT22;43683;48.650;9.290;2022-11-03T13:28:25;13.00;81.10
57857;DHT22;43683;48.650;9.290;2022-11-03T13:30:51;12.90;81.30
57857;DHT22;43683;48.650;9.290;2022-11-03T13:33:16;12.90;81.30
57857;DHT22;43683;48.650;9.290;2022-11-03T13:35:42;12.90;81.40
57857;DHT22;43683;48.650;9.290;2022-11-03T13:38:07;12.90;81.50
57857;DHT22;43683;48.650;9.290;2022-11-03T13:40:33;12.90;81.60
57857;DHT22;43683;48.650;9.290;2022-11-03T13:42:58;12.90;81.70
57857;DHT22;43683;48.650;9.290;2022-11-03T13:45:24;12.90;81.90
57857;DHT22;43683;48.650;9.290;2022-11-03T13:47:49;12.90;82.10
57857;DHT22;43683;48.650;9.290;2022-11-03T13:50:15;12.80;82.30
57857;DHT22;43683;48.650;9.290;2022-11-03T13:52:40;12.70;82.50
57857;DHT22;43683;48.650;9.290;2022-11-03T13:55:06;12.70;82.70
57857;DHT22;43683;48.650;9.290;2022-11-03T13:57:32;12.60;82.80
57857;DHT22;43683;48.650;9.290;2022-11-03T13:59:57;12.60;83.00
57857;DHT22;43683;48.650;9.290;2022-11-03T14:02:23;12.60;83.00
57857;DHT22;43683;48.650;9.290;2022-11-03T14:04:48;12.50;83.10
57857;DHT22;43683;48.650;9.290;2022-11-03T14:07:14;12.50;83.10
57857;DHT22;43683;48.650;9.290;2022-11-03T14:09:39;12.50;83.10
57857;DHT22;43683;48.650;9.290;2022-11-03T14:12:05;12.50;83.10
57857;DHT22;43683;48.650;9.290;2022-11-03T14:14:49;12.50;83.20
57857;DHT22;43683;48.650;9.290;2022-11-03T14:17:15;12.50;83.30
57857;DHT22;43683;48.650;9.290;2022-11-03T14:19:40;12.50;83.30
57857;DHT22;43683;48.650;9.290;2022-11-03T14:22:06;12.40;83.50
57857;DHT22;43683;48.650;9.290;2022-11-03T14:24:32;12.40;83.80
57857;DHT22;43683;48.650;9.290;2022-11-03T14:26:57;12.40;84.00
57857;DHT22;43683;48.650;9.290;2022-11-03T14:29:23;12.30;84.20
57857;DHT22;43683;48.650;9.290;2022-11-03T14:31:48;12.30;84.30
57857;DHT22;43683;48.650;9.290;2022-11-03T14:34:14;12.30;84.30
57857;DHT22;43683;48.650;9.290;2022-11-03T14:36:39;12.30;84.30
57857;DHT22;43683;48.650;9.290;2022-11-03T14:39:05;12.20;84.30
57857;DHT22;43683;48.650;9.290;2022-11-03T14:41:31;12.20;84.30
57857;DHT22;43683;48.650;9.290;2022-11-03T14:44:15;12.20;84.50
57857;DHT22;43683;48.650;9.290;2022-11-03T14:46:40;12.10;84.60
57857;DHT22;43683;48.650;9.290;2022-11-03T14:49:06;12.10;84.80
57857;DHT22;43683;48.650;9.290;2022-11-03T14:51:32;12.10;85.00
57857;DHT22;43683;48.650;9.290;2022-11-03T14:53:58;12.00;85.20
57857;DHT22;43683;48.650;9.290;2022-11-03T14:56:24;12.00;85.50
57857;DHT22;43683;48.650;9.290;2022-11-03T14:58:49;11.90;85.80
57857;DHT22;43683;48.650;9.290;2022-11-03T15:01:16;11.80;86.00
57857;DHT22;43683;48.650;9.290;2022-11-03T15:03:42;11.80;86.30
57857;DHT22;43683;48.650;9.290;2022-11-03T15:06:08;11.70;86.40
57857;DHT22;43683;48.650;9.290;2022-11-03T15:08:34;11.70;86.60
57857;DHT22;43683;48.650;9.290;2022-11-03T15:11:00;11.60;86.70
57857;DHT22;43683;48.650;9.290;2022-11-03T15:13:25;11.60;87.00
57857;DHT22;43683;48.650;9.290;2022-11-03T15:15:51;11.50;87.10
57857;DHT22;43683;48.650;9.290;2022-11-03T15:18:16;11.50;87.40
57857;DHT22;43683;48.650;9.290;2022-11-03T15:20:42;11.40;87.60
57857;DHT22;43683;48.650;9.290;2022-11-03T15:23:08;11.30;87.80
57857;DHT22;43683;48.650;9.290;2022-11-03T15:25:33;11.30;88.00
57857;DHT22;43683;48.650;9.290;2022-11-03T15:27:59;11.20;88.10
57857;DHT22;43683;48.650;9.290;2022-11-03T15:30:25;11.20;88.20
57857;DHT22;43683;48.650;9.290;2022-11-03T15:32:51;11.10;88.40
57857;DHT22;43683;48.650;9.290;2022-11-03T15:35:17;11.00;88.50
57857;DHT22;43683;48.650;9.290;2022-11-03T15:37:43;11.00;88.70
57857;DHT22;43683;48.650;9.290;2022-11-03T15:40:13;11.00;88.70
57857;DHT22;43683;48.650;9.290;2022-11-03T15:42:39;10.90;88.90
57857;DHT22;43683;48.650;9.290;2022-11-03T15:45:06;10.90;88.90
57857;DHT22;43683;48.650;9.290;2022-11-03T15:47:31;10.90;88.90
57857;DHT22;43683;48.650;9.290;2022-11-03T15:49:57;10.90;88.90
57857;DHT22;43683;48.650;9.290;2022-11-03T15:52:23;10.80;88.90
57857;DHT22;43683;48.650;9.290;2022-11-03T15:54:48;10.80;89.10
57857;DHT22;43683;48.650;9.290;2022-11-03T15:57:14;10.70;89.20
57857;DHT22;43683;48.650;9.290;2022-11-03T15:59:40;10.70;89.30
57857;DHT22;43683;48.650;9.290;2022-11-03T16:02:06;10.60;89.20
57857;DHT22;43683;48.650;9.290;2022-11-03T16:04:32;10.60;89.20
57857;DHT22;43683;48.650;9.290;2022-11-03T16:06:57;10.60;89.10
57857;DHT22;43683;48.650;9.290;2022-11-03T16:09:23;10.70;88.90
57857;DHT22;43683;48.650;9.290;2022-11-03T16:11:48;10.70;88.60
57857;DHT22;43683;48.650;9.290;2022-11-03T16:14:14;10.70;88.50
57857;DHT22;43683;48.650;9.290;2022-11-03T16:16:39;10.70;88.50
57857;DHT22;43683;48.650;9.290;2022-11-03T16:19:05;10.70;88.40
57857;DHT22;43683;48.650;9.290;2022-11-03T16:21:30;10.70;88.30
57857;DHT22;43683;48.650;9.290;2022-11-03T16:23:56;10.70;88.30
57857;DHT22;43683;48.650;9.290;2022-11-03T16:26:21;10.70;88.30
57857;DHT22;43683;48.650;9.290;2022-11-03T16:28:49;10.70;88.20
57857;DHT22;43683;48.650;9.290;2022-11-03T16:31:14;10.70;88.20
57857;DHT22;43683;48.650;9.290;2022-11-03T16:33:40;10.70;88.10
57857;DHT22;43683;48.650;9.290;2022-11-03T16:36:06;10.70;88.00
57857;DHT22;43683;48.650;9.290;2022-11-03T16:38:31;10.70;88.00
57857;DHT22;43683;48.650;9.290;2022-11-03T16:40:57;10.70;88.00
57857;DHT22;43683;48.650;9.290;2022-11-03T16:43:22;10.70;87.80
57857;DHT22;43683;48.650;9.290;2022-11-03T16:45:48;10.70;87.70
57857;DHT22;43683;48.650;9.290;2022-11-03T16:48:13;10.70;87.80
57857;DHT22;43683;48.650;9.290;2022-11-03T16:50:39;10.60;87.80